createdAt,value
2024-01-12T00:01:13.601Z,82.83
2024-01-12T00:03:43.202Z,82.00
2024-01-12T00:06:12.682Z,67.52
2024-01-12T00:08:42.502Z,58.97
2024-01-12T00:11:12.132Z,61.47
2024-01-12T00:13:42.291Z,51.62
2024-01-12T00:16:11.794Z,55.74
2024-01-12T00:18:41.354Z,58.80
2024-01-12T00:21:11.049Z,55.66
2024-01-12T00:23:40.440Z,52.66
2024-01-12T00:26:09.875Z,47.34
2024-01-12T00:28:39.319Z,51.06
2024-01-12T00:31:09.280Z,54.54
2024-01-12T00:33:38.900Z,53.29
2024-01-12T00:36:08.719Z,47.22
2024-01-12T00:38:38.058Z,41.32
2024-01-12T00:41:07.598Z,40.81
2024-01-12T00:43:37.087Z,46.31
2024-01-12T00:46:06.871Z,46.92
2024-01-12T00:48:36.884Z,49.73
2024-01-12T00:51:06.895Z,43.02
2024-01-12T00:53:37.154Z,46.74
2024-01-12T00:56:06.865Z,44.66
2024-01-12T00:58:36.831Z,40.04
2024-01-12T01:01:06.376Z,38.96
2024-01-12T01:03:35.919Z,49.68
2024-01-12T01:06:05.698Z,42.16
2024-01-12T01:08:35.285Z,47.00
2024-01-12T01:11:04.762Z,46.38
2024-01-12T01:13:37.387Z,42.00
2024-01-12T01:16:07.357Z,40.72
2024-01-12T01:18:37.668Z,42.34
2024-01-12T01:21:07.520Z,36.91
2024-01-12T01:23:37.080Z,41.82
2024-01-12T01:26:06.585Z,44.79
2024-01-12T01:28:36.168Z,39.30
2024-01-12T01:31:05.732Z,44.20
2024-01-12T01:33:35.494Z,43.67
2024-01-12T01:36:05.323Z,52.78
2024-01-12T01:38:34.807Z,44.13
2024-01-12T01:41:04.368Z,44.18
2024-01-12T01:43:34.098Z,44.41
2024-01-12T01:46:04.508Z,49.48
2024-01-12T01:48:34.564Z,44.36
2024-01-12T01:51:05.810Z,49.69
2024-01-12T01:53:35.543Z,45.22
2024-01-12T01:56:06.741Z,48.63
2024-01-12T01:58:36.752Z,52.18
2024-01-12T02:01:07.682Z,45.50
2024-01-12T02:03:41.650Z,46.99
2024-01-12T02:06:13.453Z,53.47
2024-01-12T02:08:43.355Z,49.40
2024-01-12T02:11:12.871Z,47.00
2024-01-12T02:13:43.584Z,53.09
2024-01-12T02:16:13.266Z,55.43
2024-01-12T02:18:42.828Z,48.96
2024-01-12T02:21:12.538Z,46.48
2024-01-12T02:23:42.082Z,47.37
2024-01-12T02:26:11.603Z,49.90
2024-01-12T02:28:41.152Z,45.02
2024-01-12T02:31:11.240Z,45.61
2024-01-12T02:33:40.810Z,46.16
2024-01-12T02:36:10.233Z,45.73
2024-01-12T02:38:39.877Z,48.74
2024-01-12T02:41:10.234Z,42.33
2024-01-12T02:43:41.385Z,49.88
2024-01-12T02:46:10.728Z,44.47
2024-01-12T02:48:40.140Z,39.03
2024-01-12T02:51:09.992Z,48.16
2024-01-12T02:53:39.463Z,44.36
2024-01-12T02:56:08.909Z,47.91
2024-01-12T02:58:38.354Z,39.21
2024-01-12T03:01:09.271Z,42.26
2024-01-12T03:03:38.871Z,48.23
2024-01-12T03:06:09.436Z,48.12
2024-01-12T03:08:39.196Z,52.14
2024-01-12T03:11:08.628Z,48.77
2024-01-12T03:13:38.120Z,53.89
2024-01-12T03:16:07.569Z,50.33
2024-01-12T03:18:37.669Z,56.83
2024-01-12T03:21:07.536Z,45.16
2024-01-12T03:23:37.016Z,55.39
2024-01-12T03:26:06.487Z,50.26
2024-01-12T03:28:36.293Z,44.79
2024-01-12T03:31:07.891Z,47.06
2024-01-12T03:33:39.313Z,49.01
2024-01-12T03:36:09.732Z,42.48
2024-01-12T03:38:39.201Z,39.78
2024-01-12T03:41:08.861Z,44.59
2024-01-12T03:43:38.229Z,44.26
2024-01-12T03:46:07.864Z,44.99
2024-01-12T03:48:37.487Z,39.61
2024-01-12T03:51:07.809Z,41.32
2024-01-12T03:53:37.540Z,44.53
2024-01-12T03:56:07.137Z,45.46
2024-01-12T03:58:39.787Z,43.86
2024-01-12T04:01:09.603Z,43.52
2024-01-12T04:03:41.275Z,50.01
2024-01-12T04:06:11.645Z,42.84
2024-01-12T04:08:41.425Z,44.92
2024-01-12T04:11:11.710Z,44.78
2024-01-12T04:13:41.118Z,49.08
2024-01-12T04:16:10.542Z,55.00
2024-01-12T04:18:41.126Z,54.61
2024-01-12T04:21:11.093Z,55.27
2024-01-12T04:23:40.915Z,60.99
2024-01-12T04:26:10.435Z,54.08
2024-01-12T04:28:39.863Z,50.60
2024-01-12T04:31:09.630Z,53.09
2024-01-12T04:33:39.173Z,56.21
2024-01-12T04:36:08.904Z,49.67
2024-01-12T04:38:38.306Z,45.91
2024-01-12T04:41:08.087Z,49.21
2024-01-12T04:43:37.456Z,53.81
2024-01-12T04:46:06.846Z,46.60
2024-01-12T04:48:36.329Z,46.51
2024-01-12T04:51:06.178Z,41.11
2024-01-12T04:53:35.835Z,46.88
2024-01-12T04:56:05.325Z,52.84
2024-01-12T04:58:34.915Z,51.53
2024-01-12T05:01:04.445Z,43.47
2024-01-12T05:03:33.914Z,46.96
2024-01-12T05:06:03.504Z,55.09
2024-01-12T05:08:35.190Z,46.51
2024-01-12T05:11:04.637Z,40.87
2024-01-12T05:13:33.997Z,40.73
2024-01-12T05:16:05.335Z,38.42
2024-01-12T05:18:35.102Z,40.56
2024-01-12T05:21:04.644Z,42.02
2024-01-12T05:23:34.277Z,38.80
2024-01-12T05:26:03.642Z,47.57
2024-01-12T05:28:33.049Z,41.29
2024-01-12T05:31:02.753Z,35.74
2024-01-12T05:33:32.342Z,37.70
2024-01-12T05:36:05.312Z,44.42
2024-01-12T05:38:34.719Z,40.92
2024-01-12T05:41:04.282Z,40.51
2024-01-12T05:43:33.649Z,36.69
2024-01-12T05:46:03.055Z,35.19
2024-01-12T05:48:32.606Z,36.88
2024-01-12T05:51:03.338Z,38.91
2024-01-12T05:53:32.828Z,41.09
2024-01-12T05:56:02.327Z,40.60
2024-01-12T05:58:32.045Z,38.30
2024-01-12T06:01:02.207Z,40.09
2024-01-12T06:03:31.714Z,34.80
2024-01-12T06:06:01.374Z,43.79
2024-01-12T06:08:30.855Z,42.00
2024-01-12T06:11:01.697Z,36.63
2024-01-12T06:13:31.114Z,37.99
2024-01-12T06:16:00.497Z,42.87
2024-01-12T06:18:30.161Z,45.24
2024-01-12T06:20:59.823Z,41.98
2024-01-12T06:23:29.349Z,38.97
2024-01-12T06:25:58.760Z,45.13
2024-01-12T06:28:28.192Z,39.86
2024-01-12T06:30:58.226Z,42.77
2024-01-12T06:33:27.841Z,38.30
2024-01-12T06:35:57.351Z,40.63
2024-01-12T06:38:26.815Z,34.77
2024-01-12T06:40:56.617Z,36.30
2024-01-12T06:43:26.147Z,40.10
2024-01-12T06:45:58.741Z,37.03
2024-01-12T06:48:28.366Z,34.91
2024-01-12T06:50:58.119Z,45.99
2024-01-12T06:53:27.617Z,56.90
2024-01-12T06:55:57.359Z,69.98
2024-01-12T06:58:26.743Z,56.57
2024-01-12T07:00:57.808Z,52.29
2024-01-12T07:03:27.566Z,51.76
2024-01-12T07:05:59.468Z,48.17
2024-01-12T07:08:30.762Z,66.83
2024-01-12T07:11:00.252Z,76.33
2024-01-12T07:13:29.689Z,81.54
2024-01-12T07:15:59.061Z,76.88
2024-01-12T07:18:28.644Z,81.37
2024-01-12T07:21:04.505Z,67.93
2024-01-12T07:23:34.548Z,48.47
2024-01-12T07:26:04.230Z,44.20
2024-01-12T07:28:33.743Z,51.14
2024-01-12T07:31:03.226Z,46.81
2024-01-12T07:33:32.784Z,46.38
2024-01-12T07:36:02.819Z,40.74
2024-01-12T07:38:32.412Z,45.20
2024-01-12T07:41:02.029Z,51.57
2024-01-12T07:43:34.431Z,49.27
2024-01-12T07:46:03.901Z,53.18
2024-01-12T07:48:33.499Z,49.23
2024-01-12T07:51:03.142Z,47.02
2024-01-12T07:53:32.563Z,48.80
2024-01-12T07:56:02.769Z,48.96
2024-01-12T07:58:33.109Z,43.78
2024-01-12T08:01:02.811Z,56.61
2024-01-12T08:03:32.169Z,66.54
2024-01-12T08:06:02.933Z,53.22
2024-01-12T08:08:32.384Z,59.27
2024-01-12T08:11:02.006Z,57.19
2024-01-12T08:13:31.495Z,52.59
2024-01-12T08:16:01.036Z,66.96
2024-01-12T08:18:30.651Z,75.62
2024-01-12T08:21:02.016Z,68.06
2024-01-12T08:23:31.874Z,54.36
2024-01-12T08:26:01.281Z,54.86
2024-01-12T08:28:30.629Z,57.91
2024-01-12T08:31:00.337Z,61.21
2024-01-12T08:33:29.900Z,57.28
2024-01-12T08:35:59.414Z,63.53
2024-01-12T08:38:28.845Z,57.19
2024-01-12T08:40:58.793Z,57.03
2024-01-12T08:43:29.129Z,57.12
2024-01-12T08:45:58.833Z,59.27
2024-01-12T08:48:28.465Z,50.03
2024-01-12T08:50:59.901Z,52.86
2024-01-12T08:53:29.426Z,56.54
2024-01-12T08:55:58.887Z,47.20
2024-01-12T08:58:28.301Z,45.28
2024-01-12T09:00:58.455Z,40.70
2024-01-12T09:03:28.078Z,40.04
2024-01-12T09:05:57.794Z,46.73
2024-01-12T09:08:27.311Z,46.46
2024-01-12T09:10:56.773Z,37.88
2024-01-12T09:13:26.222Z,42.87
2024-01-12T09:15:55.638Z,38.09
2024-01-12T09:18:26.303Z,39.99
2024-01-12T09:20:56.304Z,42.38
2024-01-12T09:23:25.790Z,50.16
2024-01-12T09:25:56.157Z,47.84
2024-01-12T09:28:25.752Z,47.60
2024-01-12T09:30:55.473Z,48.16
2024-01-12T09:33:25.039Z,49.56
2024-01-12T09:35:55.052Z,52.14
2024-01-12T09:38:24.560Z,45.31
2024-01-12T09:40:54.396Z,50.86
2024-01-12T09:43:24.992Z,50.61
2024-01-12T09:45:54.791Z,47.69
2024-01-12T09:48:24.887Z,47.74
2024-01-12T09:50:57.375Z,54.38
2024-01-12T09:53:27.083Z,50.12
2024-01-12T09:56:05.465Z,47.97
2024-01-12T09:58:43.562Z,42.58
2024-01-12T10:01:15.762Z,42.49
2024-01-12T10:03:48.842Z,45.91
2024-01-12T10:06:18.636Z,48.09
2024-01-12T10:08:49.954Z,42.11
2024-01-12T10:11:19.856Z,47.64
2024-01-12T10:13:50.830Z,37.72
2024-01-12T10:16:22.204Z,49.86
2024-01-12T10:18:52.081Z,46.39
2024-01-12T10:21:21.559Z,41.06
2024-01-12T10:23:51.292Z,49.57
2024-01-12T10:26:20.811Z,41.27
2024-01-12T10:28:51.763Z,44.73
2024-01-12T10:31:21.376Z,45.68
2024-01-12T10:33:51.037Z,39.33
2024-01-12T10:36:24.709Z,35.82
2024-01-12T10:38:54.498Z,38.01
2024-01-12T10:41:24.074Z,40.12
2024-01-12T10:43:55.954Z,41.91
2024-01-12T10:46:41.358Z,36.82
2024-01-12T10:49:28.173Z,41.92
2024-01-12T10:52:24.040Z,41.81
2024-01-12T10:55:01.903Z,32.50
2024-01-12T10:57:34.237Z,34.09
2024-01-12T11:00:06.688Z,36.51
2024-01-12T11:02:36.533Z,33.90
2024-01-12T11:05:09.506Z,34.19
2024-01-12T11:07:42.645Z,42.07
2024-01-12T11:10:13.621Z,40.06
2024-01-12T11:12:45.504Z,37.90
2024-01-12T11:15:15.165Z,42.24
2024-01-12T11:17:44.782Z,42.88
2024-01-12T11:20:19.901Z,40.32
2024-01-12T11:22:51.932Z,38.03
2024-01-12T11:25:22.326Z,34.28
2024-01-12T11:27:54.770Z,31.43
2024-01-12T11:30:27.034Z,26.68
2024-01-12T11:33:06.962Z,24.50
2024-01-12T11:35:38.843Z,25.33
2024-01-12T11:38:10.998Z,23.17
2024-01-12T11:40:45.386Z,43.39
2024-01-12T11:43:18.978Z,39.76
2024-01-12T11:45:51.442Z,23.51
2024-01-12T11:48:20.971Z,21.53
2024-01-12T11:50:51.548Z,26.17
2024-01-12T11:53:21.024Z,22.80
2024-01-12T11:55:51.033Z,18.74
2024-01-12T11:58:20.426Z,23.16
2024-01-12T12:00:53.346Z,24.78
2024-01-12T12:03:25.221Z,16.71
2024-01-12T12:05:54.810Z,21.81
2024-01-12T12:08:24.808Z,18.32
2024-01-12T12:10:54.427Z,16.62
2024-01-12T12:13:23.782Z,19.93
2024-01-12T12:15:53.187Z,15.07
2024-01-12T12:18:22.681Z,13.68
2024-01-12T12:20:52.625Z,16.02
2024-01-12T12:23:22.209Z,17.62
2024-01-12T12:25:52.390Z,14.04
2024-01-12T12:28:22.079Z,17.58
2024-01-12T12:30:54.671Z,14.88
2024-01-12T12:33:27.337Z,17.04
2024-01-12T12:36:07.995Z,19.16
2024-01-12T12:38:42.463Z,15.09
2024-01-12T12:41:12.874Z,14.77
2024-01-12T12:43:42.481Z,15.24
2024-01-12T12:46:11.925Z,15.16
2024-01-12T12:48:46.131Z,14.98
2024-01-12T12:51:15.776Z,12.69
2024-01-12T12:53:45.350Z,10.88
2024-01-12T12:56:14.780Z,13.79
2024-01-12T12:58:44.221Z,12.64
2024-01-12T13:01:15.497Z,13.62
2024-01-12T13:03:44.937Z,13.78
2024-01-12T13:06:15.600Z,13.93
2024-01-12T13:08:45.190Z,10.81
2024-01-12T13:11:14.636Z,14.88
2024-01-12T13:13:44.045Z,13.62
2024-01-12T13:16:14.442Z,13.97
2024-01-12T13:18:44.168Z,11.67
2024-01-12T13:21:14.143Z,14.11
2024-01-12T13:23:43.558Z,13.93
2024-01-12T13:26:12.976Z,12.29
2024-01-12T13:28:42.355Z,12.27
2024-01-12T13:31:11.928Z,13.71
2024-01-12T13:33:41.483Z,12.97
2024-01-12T13:36:10.994Z,15.70
2024-01-12T13:38:40.439Z,13.90
2024-01-12T13:41:13.641Z,11.98
2024-01-12T13:43:42.968Z,12.43
2024-01-12T13:46:12.421Z,14.72
2024-01-12T13:48:42.561Z,14.08
2024-01-12T13:51:12.480Z,10.40
2024-01-12T13:53:42.699Z,14.87
2024-01-12T13:56:12.143Z,15.22
2024-01-12T13:58:41.588Z,16.84
2024-01-12T14:01:13.602Z,19.30
2024-01-12T14:03:47.450Z,15.36
2024-01-12T14:06:17.538Z,17.94
2024-01-12T14:08:47.425Z,12.04
2024-01-12T14:11:16.880Z,14.63
2024-01-12T14:13:48.740Z,17.16
2024-01-12T14:16:18.704Z,15.00
2024-01-12T14:18:48.327Z,13.46
2024-01-12T14:21:17.927Z,15.67
2024-01-12T14:23:47.412Z,10.29
2024-01-12T14:26:17.937Z,11.68
2024-01-12T14:28:48.791Z,13.77
2024-01-12T14:31:18.808Z,14.81
2024-01-12T14:33:48.745Z,15.33
2024-01-12T14:36:18.621Z,12.11
2024-01-12T14:38:49.942Z,13.66
2024-01-12T14:41:19.803Z,12.60
2024-01-12T14:43:49.283Z,17.02
2024-01-12T14:46:19.272Z,14.76
2024-01-12T14:48:49.481Z,16.77
2024-01-12T14:51:19.431Z,24.13
2024-01-12T14:53:50.228Z,20.43
2024-01-12T14:56:20.056Z,24.93
2024-01-12T14:58:49.863Z,19.31
2024-01-12T15:01:20.403Z,92.22
2024-01-12T15:03:51.572Z,21.73
2024-01-12T15:06:23.602Z,46.94
2024-01-12T15:08:54.108Z,22.96
2024-01-12T15:11:23.737Z,30.77
2024-01-12T15:13:53.323Z,38.36
2024-01-12T15:16:23.064Z,22.09
2024-01-12T15:18:52.661Z,18.26
2024-01-12T15:21:22.345Z,21.17
2024-01-12T15:23:51.879Z,16.73
2024-01-12T15:26:21.384Z,18.47
2024-01-12T15:28:50.868Z,20.57
2024-01-12T15:31:23.125Z,17.88
2024-01-12T15:33:52.710Z,17.40
2024-01-12T15:36:22.299Z,18.16
2024-01-12T15:38:51.788Z,17.28
2024-01-12T15:41:21.211Z,19.53
2024-01-12T15:43:50.596Z,21.84
2024-01-12T15:46:20.010Z,16.54
2024-01-12T15:48:49.505Z,18.59
2024-01-12T15:51:21.071Z,15.37
2024-01-12T15:53:50.631Z,18.43
2024-01-12T15:56:23.436Z,17.91
2024-01-12T15:58:52.993Z,15.32
2024-01-12T16:01:25.905Z,17.52
2024-01-12T16:03:55.426Z,18.69
2024-01-12T16:06:24.973Z,16.49
2024-01-12T16:08:54.686Z,17.06
2024-01-12T16:11:25.263Z,21.09
2024-01-12T16:13:54.745Z,18.43
2024-01-12T16:16:24.299Z,24.58
2024-01-12T16:19:00.302Z,16.26
2024-01-12T16:21:38.141Z,22.79
2024-01-12T16:24:09.684Z,23.06
2024-01-12T16:26:40.989Z,23.18
2024-01-12T16:29:10.925Z,28.58
2024-01-12T16:31:40.376Z,25.72
2024-01-12T16:34:11.587Z,22.83
2024-01-12T16:36:41.249Z,24.48
2024-01-12T16:39:10.944Z,26.73
2024-01-12T16:41:40.422Z,26.89
2024-01-12T16:44:09.796Z,25.57
2024-01-12T16:46:39.217Z,26.12
2024-01-12T16:49:09.161Z,24.38
2024-01-12T16:51:38.646Z,26.38
2024-01-12T16:54:08.136Z,25.70
2024-01-12T16:56:41.261Z,22.62
2024-01-12T16:59:13.703Z,25.47
2024-01-12T17:01:43.154Z,24.40
2024-01-12T17:04:12.612Z,31.06
2024-01-12T17:06:43.988Z,29.19
2024-01-12T17:09:14.174Z,29.98
2024-01-12T17:11:47.790Z,41.71
2024-01-12T17:14:17.205Z,35.44
2024-01-12T17:16:47.712Z,37.84
2024-01-12T17:19:17.588Z,44.64
2024-01-12T17:21:47.149Z,38.38
2024-01-12T17:24:16.692Z,48.58
2024-01-12T17:26:47.585Z,44.49
2024-01-12T17:29:17.288Z,40.56
2024-01-12T17:31:50.240Z,41.54
2024-01-12T17:34:20.027Z,38.96
2024-01-12T17:36:50.043Z,47.87
2024-01-12T17:39:20.792Z,44.36
2024-01-12T17:41:50.276Z,49.97
2024-01-12T17:44:19.680Z,62.47
2024-01-12T17:46:50.346Z,49.67
2024-01-12T17:49:20.345Z,59.26
2024-01-12T17:51:49.915Z,63.27
2024-01-12T17:54:22.554Z,45.03
2024-01-12T17:56:52.658Z,53.94
2024-01-12T17:59:23.216Z,45.88
2024-01-12T18:01:52.612Z,51.31
2024-01-12T18:04:21.986Z,50.04
2024-01-12T18:06:51.428Z,53.11
2024-01-12T18:09:21.427Z,50.94
2024-01-12T18:11:50.833Z,60.98
2024-01-12T18:14:20.223Z,60.29
2024-01-12T18:16:52.634Z,59.70
2024-01-12T18:19:22.453Z,58.72
2024-01-12T18:21:52.304Z,68.46
2024-01-12T18:24:21.737Z,62.90
2024-01-12T18:26:51.362Z,59.07
2024-01-12T18:29:23.726Z,55.02
2024-01-12T18:31:55.380Z,56.91
2024-01-12T18:34:25.128Z,49.13
2024-01-12T18:36:54.823Z,43.13
2024-01-12T18:39:24.603Z,43.23
2024-01-12T18:41:54.055Z,45.61
2024-01-12T18:44:23.469Z,46.86
2024-01-12T18:46:52.886Z,48.98
2024-01-12T18:49:22.514Z,45.82
2024-01-12T18:51:52.258Z,54.04
2024-01-12T18:54:22.690Z,54.14
2024-01-12T18:56:52.188Z,72.33
2024-01-12T18:59:22.026Z,67.00
2024-01-12T19:01:52.786Z,62.06
2024-01-12T19:04:23.575Z,93.89
2024-01-12T19:06:53.194Z,91.23
2024-01-12T19:09:23.038Z,104.93
2024-01-12T19:11:52.530Z,89.87
2024-01-12T19:14:21.998Z,97.00
2024-01-12T19:16:51.543Z,114.46
2024-01-12T19:19:21.580Z,149.32
2024-01-12T19:21:51.087Z,124.50
2024-01-12T19:24:20.565Z,161.09
2024-01-12T19:26:50.167Z,166.48
2024-01-12T19:29:19.832Z,126.49
2024-01-12T19:31:49.328Z,79.29
2024-01-12T19:34:18.855Z,78.68
2024-01-12T19:36:48.465Z,63.28
2024-01-12T19:39:18.266Z,66.52
2024-01-12T19:41:48.583Z,64.31
2024-01-12T19:44:18.237Z,103.01
2024-01-12T19:46:47.631Z,85.58
2024-01-12T19:49:17.443Z,99.21
2024-01-12T19:51:47.034Z,147.40
2024-01-12T19:54:16.590Z,115.22
2024-01-12T19:56:46.120Z,102.36
2024-01-12T19:59:16.984Z,92.41
2024-01-12T20:01:46.674Z,115.71
2024-01-12T20:04:16.264Z,103.49
2024-01-12T20:06:46.184Z,120.80
2024-01-12T20:09:16.066Z,107.09
2024-01-12T20:11:45.585Z,113.07
2024-01-12T20:14:15.122Z,114.22
2024-01-12T20:16:44.542Z,127.46
2024-01-12T20:19:14.298Z,131.99
2024-01-12T20:21:43.817Z,112.24
2024-01-12T20:24:13.370Z,122.78
2024-01-12T20:26:42.867Z,105.16
2024-01-12T20:29:12.597Z,121.82
2024-01-12T20:31:42.006Z,103.43
2024-01-12T20:34:11.648Z,108.38
2024-01-12T20:36:41.116Z,116.60
2024-01-12T20:39:10.927Z,130.11
2024-01-12T20:41:40.445Z,110.71
2024-01-12T20:44:09.888Z,116.18
2024-01-12T20:46:39.305Z,134.42
2024-01-12T20:49:09.709Z,105.79
2024-01-12T20:51:40.701Z,96.77
2024-01-12T20:54:10.836Z,100.29
2024-01-12T20:56:40.550Z,79.12
2024-01-12T20:59:10.381Z,85.13
2024-01-12T21:01:39.938Z,116.16
2024-01-12T21:04:09.438Z,88.32
2024-01-12T21:06:38.891Z,81.37
2024-01-12T21:09:12.036Z,80.76
2024-01-12T21:11:41.552Z,67.98
2024-01-12T21:14:10.935Z,79.04
2024-01-12T21:16:40.344Z,84.09
2024-01-12T21:19:10.123Z,87.36
2024-01-12T21:21:39.678Z,97.29
2024-01-12T21:24:09.189Z,101.28
2024-01-12T21:26:38.831Z,109.87
2024-01-12T21:29:08.438Z,106.36
2024-01-12T21:31:37.868Z,116.69
2024-01-12T21:34:07.520Z,109.88
2024-01-12T21:36:37.832Z,126.46
2024-01-12T21:39:10.343Z,114.27
2024-01-12T21:41:40.110Z,105.31
2024-01-12T21:44:09.660Z,99.00
2024-01-12T21:46:39.113Z,94.63
2024-01-12T21:49:10.747Z,90.81
2024-01-12T21:51:40.280Z,104.66
2024-01-12T21:54:09.954Z,105.78
2024-01-12T21:56:39.526Z,107.01
2024-01-12T21:59:09.220Z,105.72
2024-01-12T22:01:38.847Z,124.14
2024-01-12T22:04:08.652Z,128.12
2024-01-12T22:06:38.222Z,139.06
2024-01-12T22:09:08.024Z,117.26
2024-01-12T22:11:38.802Z,128.61
2024-01-12T22:14:09.196Z,141.54
2024-01-12T22:16:38.628Z,123.93
2024-01-12T22:19:08.457Z,121.90
2024-01-12T22:21:38.058Z,115.50
2024-01-12T22:24:07.954Z,116.57
2024-01-12T22:26:37.362Z,132.78
2024-01-12T22:29:06.982Z,121.57
2024-01-12T22:31:36.790Z,141.99
2024-01-12T22:34:06.433Z,155.37
2024-01-12T22:36:36.076Z,139.12
2024-01-12T22:39:05.550Z,158.76
2024-01-12T22:41:35.269Z,142.07
2024-01-12T22:44:04.827Z,147.11
2024-01-12T22:46:34.290Z,134.73
2024-01-12T22:49:03.910Z,157.27
2024-01-12T22:51:33.497Z,172.63
2024-01-12T22:54:03.041Z,154.09
2024-01-12T22:56:32.512Z,162.09
2024-01-12T22:59:01.962Z,172.81
2024-01-12T23:01:31.416Z,154.41
2024-01-12T23:04:00.907Z,178.94
2024-01-12T23:06:30.394Z,162.84
2024-01-12T23:08:59.914Z,177.21
2024-01-12T23:11:29.506Z,170.08
2024-01-12T23:13:58.983Z,174.13
2024-01-12T23:16:28.364Z,170.93
2024-01-12T23:18:57.932Z,163.23
2024-01-12T23:21:27.902Z,164.61
2024-01-12T23:23:57.458Z,168.04
2024-01-12T23:26:27.030Z,176.50
2024-01-12T23:28:56.493Z,169.07
2024-01-12T23:31:26.119Z,161.44
2024-01-12T23:33:55.724Z,168.07
2024-01-12T23:36:27.691Z,161.20
2024-01-12T23:38:57.589Z,168.03
2024-01-12T23:41:31.633Z,176.84
2024-01-12T23:44:02.252Z,175.18
2024-01-12T23:46:31.781Z,205.36
2024-01-12T23:49:01.379Z,182.18
2024-01-12T23:51:31.026Z,177.97
2024-01-12T23:54:01.075Z,186.93
2024-01-12T23:56:30.871Z,187.48
2024-01-12T23:59:00.378Z,157.90
